^^
Station Historical Data
Daily Summary for May 6, 2017 Units:  Both    English   Metric
« Previous Day
Next Day »
Daily Weekly Monthly Yearly Custom
  High: Low: Average:
Temperature: 77.2 °F /  25.1 °C 52.9 °F /  11.6 °C 64.6 °F /  18.1 °C
Dew Point: 48.7 °F /  9.3 °C 43.5 °F /  6.4 °C 45.3 °F /  7.4 °C
Humidity: 75% 31% 52%
Wind Speed: 6.9mph /  11.1km/h - 0.7mph /  1.1km/h
Wind Gust: 12.0mph /  19.3km/h - -
Wind- - SSW
Pressure: 30.06 in /  1017.8 hPa 29.94 in /  1013.8 hPa -
Precipitation: 0.00 in /  0 mm    
Historical Graphs
 
 
Tabular Data for May 6, 2017
Time Temperature Dew Point Pressure Wind Wind Speed Wind Gust Humidity Rainfall Rate (Hourly) solar Conditions
00:00 57.9 °F /  14.4 °C 45.9 °F /  7.7 °C 30.01in /  1016.1hPa Calm   3.0mph /  4.8km/h 64% 0.00in /  0mm 0.0 W/m2
00:06 57.7 °F /  14.3 °C 45.7 °F /  7.6 °C 30.01in /  1016.1hPa Calm   3.0mph /  4.8km/h 64% 0.00in /  0mm 0.0 W/m2
00:12 57.6 °F /  14.2 °C 45.9 °F /  7.7 °C 30.01in /  1016.1hPa Calm   3.0mph /  4.8km/h 65% 0.00in /  0mm 0.0 W/m2
00:18 57.0 °F /  13.9 °C 45.3 °F /  7.4 °C 30.01in /  1016.1hPa Calm     65% 0.00in /  0mm 0.0 W/m2
00:25 56.8 °F /  13.8 °C 45.1 °F /  7.3 °C 30.01in /  1016.1hPa Calm     65% 0.00in /  0mm 0.0 W/m2
00:31 56.7 °F /  13.7 °C 45.5 °F /  7.5 °C 30.01in /  1016.1hPa Calm   2.0mph /  3.2km/h 66% 0.00in /  0mm 0.0 W/m2
00:37 56.5 °F /  13.6 °C 45.3 °F /  7.4 °C 30.01in /  1016.1hPa Calm   2.0mph /  3.2km/h 66% 0.00in /  0mm 0.0 W/m2
00:43 56.1 °F /  13.4 °C 45.0 °F /  7.2 °C 30.01in /  1016.1hPa Calm   1.0mph /  1.6km/h 66% 0.00in /  0mm 0.0 W/m2
00:49 56.1 °F /  13.4 °C 45.3 °F /  7.4 °C 30.01in /  1016.1hPa Calm     67% 0.00in /  0mm 0.0 W/m2
00:55 55.9 °F /  13.3 °C 45.1 °F /  7.3 °C 30.01in /  1016.1hPa Calm     67% 0.00in /  0mm 0.0 W/m2
01:02 55.9 °F /  13.3 °C 45.1 °F /  7.3 °C 30.01in /  1016.1hPa Calm   1.0mph /  1.6km/h 67% 0.00in /  0mm 0.0 W/m2
01:08 55.8 °F /  13.2 °C 45.0 °F /  7.2 °C 30.01in /  1016.1hPa Calm   2.0mph /  3.2km/h 67% 0.00in /  0mm 0.0 W/m2
01:14 55.6 °F /  13.1 °C 45.1 °F /  7.3 °C 30.01in /  1016.1hPa SE 2.0mph /  3.2km/h 2.0mph /  3.2km/h 68% 0.00in /  0mm 0.0 W/m2
01:20 55.4 °F /  13 °C 45.0 °F /  7.2 °C 30.01in /  1016.1hPa Calm   3.0mph /  4.8km/h 68% 0.00in /  0mm 0.0 W/m2
01:26 55.2 °F /  12.9 °C 44.8 °F /  7.1 °C 30.01in /  1016.1hPa SE 0.9mph /  1.4km/h 1.0mph /  1.6km/h 68% 0.00in /  0mm 0.0 W/m2
01:32 55.0 °F /  12.8 °C 44.6 °F /  7 °C 30.01in /  1016.1hPa Calm   1.0mph /  1.6km/h 68% 0.00in /  0mm 0.0 W/m2
01:38 54.9 °F /  12.7 °C 44.4 °F /  6.9 °C 30.01in /  1016.1hPa Calm     68% 0.00in /  0mm 0.0 W/m2
01:45 54.9 °F /  12.7 °C 44.4 °F /  6.9 °C 30.01in /  1016.1hPa Calm     68% 0.00in /  0mm 0.0 W/m2
01:51 54.7 °F /  12.6 °C 44.8 °F /  7.1 °C 30.01in /  1016.1hPa Calm   1.0mph /  1.6km/h 69% 0.00in /  0mm 0.0 W/m2
01:57 54.5 °F /  12.5 °C 44.6 °F /  7 °C 30.01in /  1016.1hPa Calm   2.0mph /  3.2km/h 69% 0.00in /  0mm 0.0 W/m2
02:03 54.3 °F /  12.4 °C 44.4 °F /  6.9 °C 30.01in /  1016.1hPa Calm     69% 0.00in /  0mm 0.0 W/m2
02:09 54.3 °F /  12.4 °C 44.4 °F /  6.9 °C 30.01in /  1016.1hPa Calm   1.0mph /  1.6km/h 69% 0.00in /  0mm 0.0 W/m2
02:15 54.5 °F /  12.5 °C 44.6 °F /  7 °C 30.01in /  1016.1hPa Calm   3.0mph /  4.8km/h 69% 0.00in /  0mm 0.0 W/m2
02:21 54.7 °F /  12.6 °C 44.8 °F /  7.1 °C 30.01in /  1016.1hPa Calm   2.0mph /  3.2km/h 69% 0.00in /  0mm 0.0 W/m2
02:28 54.7 °F /  12.6 °C 44.8 °F /  7.1 °C 30.00in /  1015.8hPa ENE 0.9mph /  1.4km/h 1.0mph /  1.6km/h 69% 0.00in /  0mm 0.0 W/m2
02:34 54.9 °F /  12.7 °C 45.0 °F /  7.2 °C 30.00in /  1015.8hPa Calm   1.0mph /  1.6km/h 69% 0.00in /  0mm 0.0 W/m2
02:40 55.0 °F /  12.8 °C 44.6 °F /  7 °C 30.00in /  1015.8hPa Calm   1.0mph /  1.6km/h 68% 0.00in /  0mm 0.0 W/m2
02:46 55.2 °F /  12.9 °C 44.8 °F /  7.1 °C 30.00in /  1015.8hPa Calm     68% 0.00in /  0mm 0.0 W/m2
02:52 55.4 °F /  13 °C 45.0 °F /  7.2 °C 30.00in /  1015.8hPa Calm   1.0mph /  1.6km/h 68% 0.00in /  0mm 0.0 W/m2
02:58 55.6 °F /  13.1 °C 45.1 °F /  7.3 °C 29.99in /  1015.5hPa Calm     68% 0.00in /  0mm 0.0 W/m2
03:05 55.6 °F /  13.1 °C 44.8 °F /  7.1 °C 29.99in /  1015.5hPa Calm     67% 0.00in /  0mm 0.0 W/m2
03:11 55.8 °F /  13.2 °C 45.3 °F /  7.4 °C 29.99in /  1015.5hPa Calm     68% 0.00in /  0mm 0.0 W/m2
03:17 55.8 °F /  13.2 °C 45.3 °F /  7.4 °C 29.99in /  1015.5hPa Calm     68% 0.00in /  0mm 0.0 W/m2
03:23 55.8 °F /  13.2 °C 45.3 °F /  7.4 °C 29.99in /  1015.5hPa Calm     68% 0.00in /  0mm 0.0 W/m2
03:29 55.8 °F /  13.2 °C 45.3 °F /  7.4 °C 29.99in /  1015.5hPa Calm     68% 0.00in /  0mm 0.0 W/m2
03:35 55.8 °F /  13.2 °C 45.0 °F /  7.2 °C 29.99in /  1015.5hPa Calm     67% 0.00in /  0mm 0.0 W/m2
03:41 55.6 °F /  13.1 °C 45.1 °F /  7.3 °C 29.99in /  1015.5hPa Calm     68% 0.00in /  0mm 0.0 W/m2
03:47 55.4 °F /  13 °C 45.0 °F /  7.2 °C 29.99in /  1015.5hPa ENE 2.0mph /  3.2km/h 2.0mph /  3.2km/h 68% 0.00in /  0mm 0.0 W/m2
03:53 55.0 °F /  12.8 °C 44.6 °F /  7 °C 29.99in /  1015.5hPa Calm     68% 0.00in /  0mm 0.0 W/m2
03:59 54.9 °F /  12.7 °C 45.0 °F /  7.2 °C 29.99in /  1015.5hPa Calm     69% 0.00in /  0mm 0.0 W/m2
04:05 54.9 °F /  12.7 °C 45.0 °F /  7.2 °C 29.99in /  1015.5hPa Calm     69% 0.00in /  0mm 0.0 W/m2
04:11 54.9 °F /  12.7 °C 45.0 °F /  7.2 °C 29.99in /  1015.5hPa Calm     69% 0.00in /  0mm 0.0 W/m2
04:17 54.7 °F /  12.6 °C 45.1 °F /  7.3 °C 29.99in /  1015.5hPa Calm     70% 0.00in /  0mm 0.0 W/m2
04:23 54.7 °F /  12.6 °C 45.5 °F /  7.5 °C 29.99in /  1015.5hPa Calm     71% 0.00in /  0mm 0.0 W/m2
04:29 54.5 °F /  12.5 °C 45.3 °F /  7.4 °C 29.99in /  1015.5hPa Calm     71% 0.00in /  0mm 0.0 W/m2
04:36 54.3 °F /  12.4 °C 45.1 °F /  7.3 °C 30.00in /  1015.8hPa Calm     71% 0.00in /  0mm 0.0 W/m2
04:41 54.1 °F /  12.3 °C 45.0 °F /  7.2 °C 30.00in /  1015.8hPa Calm     71% 0.00in /  0mm 0.0 W/m2
04:47 54.1 °F /  12.3 °C 45.0 °F /  7.2 °C 30.00in /  1015.8hPa Calm     71% 0.00in /  0mm 0.0 W/m2
04:53 54.0 °F /  12.2 °C 44.8 °F /  7.1 °C 30.00in /  1015.8hPa Calm     71% 0.00in /  0mm 0.0 W/m2
04:59 54.0 °F /  12.2 °C 44.8 °F /  7.1 °C 30.01in /  1016.1hPa Calm   1.0mph /  1.6km/h 71% 0.00in /  0mm 0.0 W/m2
05:05 54.0 °F /  12.2 °C 45.1 °F /  7.3 °C 30.01in /  1016.1hPa ESE 0.9mph /  1.4km/h 2.0mph /  3.2km/h 72% 0.00in /  0mm 0.0 W/m2
05:11 53.8 °F /  12.1 °C 45.0 °F /  7.2 °C 30.01in /  1016.1hPa East 0.9mph /  1.4km/h 1.0mph /  1.6km/h 72% 0.00in /  0mm 0.0 W/m2
05:17 53.8 °F /  12.1 °C 45.0 °F /  7.2 °C 30.01in /  1016.1hPa Calm   1.0mph /  1.6km/h 72% 0.00in /  0mm 0.0 W/m2
05:23 53.8 °F /  12.1 °C 45.0 °F /  7.2 °C 30.01in /  1016.1hPa Calm   2.0mph /  3.2km/h 72% 0.00in /  0mm 0.0 W/m2
05:29 53.6 °F /  12 °C 44.8 °F /  7.1 °C 30.01in /  1016.1hPa Calm     72% 0.00in /  0mm 0.0 W/m2
05:35 53.4 °F /  11.9 °C 44.6 °F /  7 °C 30.01in /  1016.1hPa Calm     72% 0.00in /  0mm 0.0 W/m2
05:41 53.2 °F /  11.8 °C 44.8 °F /  7.1 °C 30.02in /  1016.5hPa Calm     73% 0.00in /  0mm 0.0 W/m2
05:47 53.2 °F /  11.8 °C 44.8 °F /  7.1 °C 30.02in /  1016.5hPa Calm     73% 0.00in /  0mm 0.0 W/m2
05:53 53.1 °F /  11.7 °C 44.6 °F /  7 °C 30.02in /  1016.5hPa Calm     73% 0.00in /  0mm 0.0 W/m2
05:59 53.1 °F /  11.7 °C 45.0 °F /  7.2 °C 30.02in /  1016.5hPa Calm     74% 0.00in /  0mm 0.0 W/m2
06:05 53.1 °F /  11.7 °C 45.0 °F /  7.2 °C 30.02in /  1016.5hPa Calm   1.0mph /  1.6km/h 74% 0.00in /  0mm 0.0 W/m2
06:11 52.9 °F /  11.6 °C 44.8 °F /  7.1 °C 30.03in /  1016.8hPa East 0.9mph /  1.4km/h 1.0mph /  1.6km/h 74% 0.00in /  0mm 0.0 W/m2
06:17 52.9 °F /  11.6 °C 44.8 °F /  7.1 °C 30.03in /  1016.8hPa Calm   1.0mph /  1.6km/h 74% 0.00in /  0mm 0.0 W/m2
06:23 52.9 °F /  11.6 °C 45.1 °F /  7.3 °C 30.03in /  1016.8hPa Calm     75% 0.00in /  0mm 9.0 W/m2
06:30 52.9 °F /  11.6 °C 45.1 °F /  7.3 °C 30.03in /  1016.8hPa East 0.9mph /  1.4km/h 1.0mph /  1.6km/h 75% 0.00in /  0mm 14.0 W/m2
06:36 52.9 °F /  11.6 °C 45.1 °F /  7.3 °C 30.03in /  1016.8hPa Calm   1.0mph /  1.6km/h 75% 0.00in /  0mm 18.0 W/m2
06:41 53.1 °F /  11.7 °C 45.3 °F /  7.4 °C 30.03in /  1016.8hPa Calm   1.0mph /  1.6km/h 75% 0.00in /  0mm 21.0 W/m2
06:48 53.1 °F /  11.7 °C 45.3 °F /  7.4 °C 30.04in /  1017.2hPa Calm     75% 0.00in /  0mm 23.0 W/m2
06:53 53.1 °F /  11.7 °C 45.3 °F /  7.4 °C 30.04in /  1017.2hPa NE 2.0mph /  3.2km/h 3.0mph /  4.8km/h 75% 0.00in /  0mm 25.0 W/m2
06:59 53.2 °F /  11.8 °C 45.5 °F /  7.5 °C 30.04in /  1017.2hPa Calm   1.0mph /  1.6km/h 75% 0.00in /  0mm 26.0 W/m2
07:05 53.4 °F /  11.9 °C 45.3 °F /  7.4 °C 30.04in /  1017.2hPa NE 0.9mph /  1.4km/h 1.0mph /  1.6km/h 74% 0.00in /  0mm 23.0 W/m2
07:12 53.8 °F /  12.1 °C 45.7 °F /  7.6 °C 30.04in /  1017.2hPa NE 0.9mph /  1.4km/h 2.0mph /  3.2km/h 74% 0.00in /  0mm 25.0 W/m2
07:18 54.0 °F /  12.2 °C 45.9 °F /  7.7 °C 30.04in /  1017.2hPa Calm   1.0mph /  1.6km/h 74% 0.00in /  0mm 23.0 W/m2
07:22 54.0 °F /  12.2 °C 45.9 °F /  7.7 °C 30.05in /  1017.5hPa Calm   2.0mph /  3.2km/h 74% 0.00in /  0mm 23.0 W/m2
07:28 54.3 °F /  12.4 °C 46.2 °F /  7.9 °C 30.05in /  1017.5hPa Calm     74% 0.00in /  0mm 26.0 W/m2
07:34 54.3 °F /  12.4 °C 46.2 °F /  7.9 °C 30.05in /  1017.5hPa Calm     74% 0.00in /  0mm 28.0 W/m2
07:40 54.7 °F /  12.6 °C 46.2 °F /  7.9 °C 30.05in /  1017.5hPa Calm     73% 0.00in /  0mm 32.0 W/m2
07:46 54.9 °F /  12.7 °C 46.8 °F /  8.2 °C 30.05in /  1017.5hPa Calm   1.0mph /  1.6km/h 74% 0.00in /  0mm 37.0 W/m2
07:52 55.2 °F /  12.9 °C 46.8 °F /  8.2 °C 30.05in /  1017.5hPa Calm     73% 0.00in /  0mm 40.0 W/m2
07:58 55.8 °F /  13.2 °C 47.3 °F /  8.5 °C 30.06in /  1017.8hPa Calm   2.0mph /  3.2km/h 73% 0.00in /  0mm 40.0 W/m2
08:04 56.3 °F /  13.5 °C 47.5 °F /  8.6 °C 30.06in /  1017.8hPa ESE 0.9mph /  1.4km/h 1.0mph /  1.6km/h 72% 0.00in /  0mm 44.0 W/m2
08:10 57.0 °F /  13.9 °C 47.7 °F /  8.7 °C 30.06in /  1017.8hPa Calm   4.0mph /  6.4km/h 71% 0.00in /  0mm 44.0 W/m2
08:16 58.1 °F /  14.5 °C 48.0 °F /  8.9 °C 30.06in /  1017.8hPa Calm   3.0mph /  4.8km/h 69% 0.00in /  0mm 69.0 W/m2
08:22 60.1 °F /  15.6 °C 48.7 °F /  9.3 °C 30.06in /  1017.8hPa Calm   1.0mph /  1.6km/h 66% 0.00in /  0mm 446.0 W/m2
08:28 61.9 °F /  16.6 °C 47.5 °F /  8.6 °C 30.06in /  1017.8hPa East 0.9mph /  1.4km/h 1.0mph /  1.6km/h 59% 0.00in /  0mm 462.0 W/m2
08:34 63.9 °F /  17.7 °C 46.4 °F /  8 °C 30.06in /  1017.8hPa NNE 0.9mph /  1.4km/h 3.0mph /  4.8km/h 53% 0.00in /  0mm 476.0 W/m2
08:40 65.7 °F /  18.7 °C 46.0 °F /  7.8 °C 30.06in /  1017.8hPa ESE 2.9mph /  4.7km/h 3.0mph /  4.8km/h 49% 0.00in /  0mm 492.0 W/m2
08:46 66.9 °F /  19.4 °C 45.5 °F /  7.5 °C 30.06in /  1017.8hPa East 0.9mph /  1.4km/h 4.0mph /  6.4km/h 46% 0.00in /  0mm 504.0 W/m2
08:52 68.4 °F /  20.2 °C 45.7 °F /  7.6 °C 30.06in /  1017.8hPa ENE 0.9mph /  1.4km/h 4.0mph /  6.4km/h 44% 0.00in /  0mm 524.0 W/m2
08:58 69.1 °F /  20.6 °C 45.7 °F /  7.6 °C 30.06in /  1017.8hPa NNW 0.9mph /  1.4km/h 4.0mph /  6.4km/h 43% 0.00in /  0mm 540.0 W/m2
09:04 70.0 °F /  21.1 °C 45.1 °F /  7.3 °C 30.06in /  1017.8hPa NE 0.9mph /  1.4km/h 3.0mph /  4.8km/h 41% 0.00in /  0mm 557.0 W/m2
09:10 70.5 °F /  21.4 °C 46.4 °F /  8 °C 30.06in /  1017.8hPa Calm   3.0mph /  4.8km/h 42% 0.00in /  0mm 573.0 W/m2
09:16 70.9 °F /  21.6 °C 46.0 °F /  7.8 °C 30.06in /  1017.8hPa NW 2.0mph /  3.2km/h 4.0mph /  6.4km/h 41% 0.00in /  0mm 587.0 W/m2
09:22 71.1 °F /  21.7 °C 44.8 °F /  7.1 °C 30.06in /  1017.8hPa SW 2.0mph /  3.2km/h 3.0mph /  4.8km/h 39% 0.00in /  0mm 603.0 W/m2
09:28 71.1 °F /  21.7 °C 44.8 °F /  7.1 °C 30.06in /  1017.8hPa Calm   4.0mph /  6.4km/h 39% 0.00in /  0mm 619.0 W/m2
09:34 71.6 °F /  22 °C 44.6 °F /  7 °C 30.06in /  1017.8hPa NNW 4.0mph /  6.4km/h 5.0mph /  8km/h 38% 0.00in /  0mm 633.0 W/m2
09:40 71.8 °F /  22.1 °C 44.8 °F /  7.1 °C 30.06in /  1017.8hPa Calm   6.0mph /  9.7km/h 38% 0.00in /  0mm 645.0 W/m2
09:46 71.8 °F /  22.1 °C 44.8 °F /  7.1 °C 30.06in /  1017.8hPa Calm   1.0mph /  1.6km/h 38% 0.00in /  0mm 659.0 W/m2
09:52 72.3 °F /  22.4 °C 45.3 °F /  7.4 °C 30.06in /  1017.8hPa NNW 2.0mph /  3.2km/h 5.0mph /  8km/h 38% 0.00in /  0mm 673.0 W/m2
09:58 72.9 °F /  22.7 °C 45.1 °F /  7.3 °C 30.05in /  1017.5hPa NW 0.9mph /  1.4km/h 5.0mph /  8km/h 37% 0.00in /  0mm 680.0 W/m2
10:04 73.0 °F /  22.8 °C 45.1 °F /  7.3 °C 30.05in /  1017.5hPa WNW 4.0mph /  6.4km/h 7.0mph /  11.3km/h 37% 0.00in /  0mm 693.0 W/m2
10:10 73.2 °F /  22.9 °C 45.3 °F /  7.4 °C 30.05in /  1017.5hPa Calm   4.0mph /  6.4km/h 37% 0.00in /  0mm 700.0 W/m2
10:16 73.2 °F /  22.9 °C 45.3 °F /  7.4 °C 30.05in /  1017.5hPa Calm   6.0mph /  9.7km/h 37% 0.00in /  0mm 710.0 W/m2
10:22 73.6 °F /  23.1 °C 45.7 °F /  7.6 °C 30.04in /  1017.2hPa WSW 2.0mph /  3.2km/h 3.0mph /  4.8km/h 37% 0.00in /  0mm 722.0 W/m2
10:28 73.6 °F /  23.1 °C 45.0 °F /  7.2 °C 30.04in /  1017.2hPa NNW 4.9mph /  7.9km/h 6.0mph /  9.7km/h 36% 0.00in /  0mm 731.0 W/m2
10:34 73.8 °F /  23.2 °C 45.9 °F /  7.7 °C 30.04in /  1017.2hPa Calm   3.0mph /  4.8km/h 37% 0.00in /  0mm 738.0 W/m2
10:40 74.1 °F /  23.4 °C 44.8 °F /  7.1 °C 30.03in /  1016.8hPa Calm   7.0mph /  11.3km/h 35% 0.00in /  0mm 745.0 W/m2
10:46 74.1 °F /  23.4 °C 44.8 °F /  7.1 °C 30.03in /  1016.8hPa Calm   4.0mph /  6.4km/h 35% 0.00in /  0mm 749.0 W/m2
10:52 74.5 °F /  23.6 °C 45.0 °F /  7.2 °C 30.03in /  1016.8hPa Calm   1.0mph /  1.6km/h 35% 0.00in /  0mm 758.0 W/m2
10:58 74.3 °F /  23.5 °C 45.7 °F /  7.6 °C 30.03in /  1016.8hPa WSW 0.9mph /  1.4km/h 5.0mph /  8km/h 36% 0.00in /  0mm 780.0 W/m2
11:04 73.9 °F /  23.3 °C 45.3 °F /  7.4 °C 30.03in /  1016.8hPa SW 0.9mph /  1.4km/h 6.0mph /  9.7km/h 36% 0.00in /  0mm 798.0 W/m2
11:10 74.1 °F /  23.4 °C 45.5 °F /  7.5 °C 30.02in /  1016.5hPa Calm   1.0mph /  1.6km/h 36% 0.00in /  0mm 747.0 W/m2
11:16 74.1 °F /  23.4 °C 45.5 °F /  7.5 °C 30.02in /  1016.5hPa Calm   3.0mph /  4.8km/h 36% 0.00in /  0mm 837.0 W/m2
11:22 73.9 °F /  23.3 °C 46.0 °F /  7.8 °C 30.01in /  1016.1hPa WSW 2.9mph /  4.7km/h 7.0mph /  11.3km/h 37% 0.00in /  0mm 856.0 W/m2
11:28 73.8 °F /  23.2 °C 45.9 °F /  7.7 °C 30.01in /  1016.1hPa NW 2.0mph /  3.2km/h 5.0mph /  8km/h 37% 0.00in /  0mm 842.0 W/m2
11:34 73.8 °F /  23.2 °C 45.1 °F /  7.3 °C 30.01in /  1016.1hPa WSW 2.9mph /  4.7km/h 12.0mph /  19.3km/h 36% 0.00in /  0mm 853.0 W/m2
11:40 73.8 °F /  23.2 °C 45.9 °F /  7.7 °C 30.01in /  1016.1hPa NW 0.9mph /  1.4km/h 9.0mph /  14.5km/h 37% 0.00in /  0mm 826.0 W/m2
11:46 74.1 °F /  23.4 °C 44.8 °F /  7.1 °C 30.00in /  1015.8hPa West 2.0mph /  3.2km/h 5.0mph /  8km/h 35% 0.00in /  0mm 882.0 W/m2
11:52 74.5 °F /  23.6 °C 45.0 °F /  7.2 °C 29.99in /  1015.5hPa WNW 0.9mph /  1.4km/h 6.0mph /  9.7km/h 35% 0.00in /  0mm 838.0 W/m2
11:59 75.4 °F /  24.1 °C 45.1 °F /  7.3 °C 29.99in /  1015.5hPa Calm   6.0mph /  9.7km/h 34% 0.00in /  0mm 877.0 W/m2
12:05 75.9 °F /  24.4 °C 45.5 °F /  7.5 °C 29.99in /  1015.5hPa West 0.9mph /  1.4km/h 4.0mph /  6.4km/h 34% 0.00in /  0mm 849.0 W/m2
12:11 76.5 °F /  24.7 °C 46.0 °F /  7.8 °C 29.98in /  1015.1hPa Calm   1.0mph /  1.6km/h 34% 0.00in /  0mm 886.0 W/m2
12:17 76.8 °F /  24.9 °C 45.5 °F /  7.5 °C 29.98in /  1015.1hPa Calm   8.0mph /  12.9km/h 33% 0.00in /  0mm 953.0 W/m2
12:23 76.8 °F /  24.9 °C 44.8 °F /  7.1 °C 29.98in /  1015.1hPa NE 2.0mph /  3.2km/h 4.0mph /  6.4km/h 32% 0.00in /  0mm 926.0 W/m2
12:29 77.2 °F /  25.1 °C 45.0 °F /  7.2 °C 29.98in /  1015.1hPa Calm   4.0mph /  6.4km/h 32% 0.00in /  0mm 942.0 W/m2
12:35 77.2 °F /  25.1 °C 44.2 °F /  6.8 °C 29.98in /  1015.1hPa NNW 0.9mph /  1.4km/h 5.0mph /  8km/h 31% 0.00in /  0mm 450.0 W/m2
12:41 77.0 °F /  25 °C 45.7 °F /  7.6 °C 29.97in /  1014.8hPa Calm   3.0mph /  4.8km/h 33% 0.00in /  0mm 875.0 W/m2
12:48 77.2 °F /  25.1 °C 45.0 °F /  7.2 °C 29.97in /  1014.8hPa NW 4.0mph /  6.4km/h 9.0mph /  14.5km/h 32% 0.00in /  0mm 352.0 W/m2
12:53 77.2 °F /  25.1 °C 45.0 °F /  7.2 °C 29.97in /  1014.8hPa SW 4.0mph /  6.4km/h 4.0mph /  6.4km/h 32% 0.00in /  0mm 766.0 W/m2
12:59 76.3 °F /  24.6 °C 44.2 °F /  6.8 °C 29.97in /  1014.8hPa Calm   5.0mph /  8km/h 32% 0.00in /  0mm 309.0 W/m2
13:05 75.4 °F /  24.1 °C 45.1 °F /  7.3 °C 29.97in /  1014.8hPa Calm   2.0mph /  3.2km/h 34% 0.00in /  0mm 292.0 W/m2
13:11 74.7 °F /  23.7 °C 44.4 °F /  6.9 °C 29.96in /  1014.4hPa WSW 2.0mph /  3.2km/h 5.0mph /  8km/h 34% 0.00in /  0mm 269.0 W/m2
13:17 73.9 °F /  23.3 °C 43.9 °F /  6.6 °C 29.96in /  1014.4hPa Calm   1.0mph /  1.6km/h 34% 0.00in /  0mm 227.0 W/m2
13:23 73.6 °F /  23.1 °C 44.2 °F /  6.8 °C 29.96in /  1014.4hPa Calm   1.0mph /  1.6km/h 35% 0.00in /  0mm 204.0 W/m2
13:29 73.2 °F /  22.9 °C 45.3 °F /  7.4 °C 29.96in /  1014.4hPa Calm   1.0mph /  1.6km/h 37% 0.00in /  0mm 193.0 W/m2
13:36 73.0 °F /  22.8 °C 44.4 °F /  6.9 °C 29.96in /  1014.4hPa West 2.0mph /  3.2km/h 5.0mph /  8km/h 36% 0.00in /  0mm 172.0 W/m2
13:42 72.9 °F /  22.7 °C 43.5 °F /  6.4 °C 29.95in /  1014.1hPa Calm   2.0mph /  3.2km/h 35% 0.00in /  0mm 199.0 W/m2
13:48 73.0 °F /  22.8 °C 44.4 °F /  6.9 °C 29.95in /  1014.1hPa West 0.9mph /  1.4km/h 1.0mph /  1.6km/h 36% 0.00in /  0mm 258.0 W/m2
13:54 73.0 °F /  22.8 °C 43.7 °F /  6.5 °C 29.95in /  1014.1hPa Calm   5.0mph /  8km/h 35% 0.00in /  0mm 364.0 W/m2
14:00 73.0 °F /  22.8 °C 43.7 °F /  6.5 °C 29.95in /  1014.1hPa NNE 0.9mph /  1.4km/h 3.0mph /  4.8km/h 35% 0.00in /  0mm 272.0 W/m2
14:06 73.4 °F /  23 °C 44.1 °F /  6.7 °C 29.95in /  1014.1hPa NNW 2.0mph /  3.2km/h 3.0mph /  4.8km/h 35% 0.00in /  0mm 722.0 W/m2
14:13 74.3 °F /  23.5 °C 45.0 °F /  7.2 °C 29.95in /  1014.1hPa West 2.9mph /  4.7km/h 3.0mph /  4.8km/h 35% 0.00in /  0mm 729.0 W/m2
14:19 75.0 °F /  23.9 °C 44.8 °F /  7.1 °C 29.95in /  1014.1hPa West 0.9mph /  1.4km/h 2.0mph /  3.2km/h 34% 0.00in /  0mm 705.0 W/m2
14:25 75.4 °F /  24.1 °C 44.2 °F /  6.8 °C 29.95in /  1014.1hPa WSW 0.9mph /  1.4km/h 1.0mph /  1.6km/h 33% 0.00in /  0mm 675.0 W/m2
14:31 75.4 °F /  24.1 °C 45.1 °F /  7.3 °C 29.94in /  1013.8hPa WNW 2.9mph /  4.7km/h 7.0mph /  11.3km/h 34% 0.00in /  0mm 650.0 W/m2
14:37 75.4 °F /  24.1 °C 44.2 °F /  6.8 °C 29.94in /  1013.8hPa Calm   5.0mph /  8km/h 33% 0.00in /  0mm 624.0 W/m2
14:43 75.9 °F /  24.4 °C 44.8 °F /  7.1 °C 29.94in /  1013.8hPa SW 0.9mph /  1.4km/h 8.0mph /  12.9km/h 33% 0.00in /  0mm 631.0 W/m2
14:49 76.1 °F /  24.5 °C 45.0 °F /  7.2 °C 29.95in /  1014.1hPa WSW 4.0mph /  6.4km/h 8.0mph /  12.9km/h 33% 0.00in /  0mm 605.0 W/m2
14:55 75.9 °F /  24.4 °C 43.9 °F /  6.6 °C 29.94in /  1013.8hPa SSW 2.9mph /  4.7km/h 10.0mph /  16.1km/h 32% 0.00in /  0mm 585.0 W/m2
15:01 75.7 °F /  24.3 °C 44.6 °F /  7 °C 29.94in /  1013.8hPa SSW 2.9mph /  4.7km/h 4.0mph /  6.4km/h 33% 0.00in /  0mm 561.0 W/m2
15:07 75.7 °F /  24.3 °C 44.6 °F /  7 °C 29.94in /  1013.8hPa WSW 0.9mph /  1.4km/h 6.0mph /  9.7km/h 33% 0.00in /  0mm 543.0 W/m2
15:13 76.3 °F /  24.6 °C 44.2 °F /  6.8 °C 29.94in /  1013.8hPa Calm   8.0mph /  12.9km/h 32% 0.00in /  0mm 524.0 W/m2
15:19 75.9 °F /  24.4 °C 43.9 °F /  6.6 °C 29.94in /  1013.8hPa SSE 0.9mph /  1.4km/h 3.0mph /  4.8km/h 32% 0.00in /  0mm 496.0 W/m2
15:26 75.6 °F /  24.2 °C 44.4 °F /  6.9 °C 29.94in /  1013.8hPa South 2.9mph /  4.7km/h 6.0mph /  9.7km/h 33% 0.00in /  0mm 418.0 W/m2
15:32 75.4 °F /  24.1 °C 44.2 °F /  6.8 °C 29.94in /  1013.8hPa SSW 2.9mph /  4.7km/h 3.0mph /  4.8km/h 33% 0.00in /  0mm 411.0 W/m2
15:38 75.0 °F /  23.9 °C 43.9 °F /  6.6 °C 29.94in /  1013.8hPa West 2.9mph /  4.7km/h 4.0mph /  6.4km/h 33% 0.00in /  0mm 441.0 W/m2
15:44 74.7 °F /  23.7 °C 43.7 °F /  6.5 °C 29.94in /  1013.8hPa Calm   5.0mph /  8km/h 33% 0.00in /  0mm 158.0 W/m2
15:50 74.3 °F /  23.5 °C 44.1 °F /  6.7 °C 29.94in /  1013.8hPa West 0.9mph /  1.4km/h 3.0mph /  4.8km/h 34% 0.00in /  0mm 151.0 W/m2
15:56 74.3 °F /  23.5 °C 44.1 °F /  6.7 °C 29.94in /  1013.8hPa SW 0.9mph /  1.4km/h 3.0mph /  4.8km/h 34% 0.00in /  0mm 111.0 W/m2
16:02 74.1 °F /  23.4 °C 43.9 °F /  6.6 °C 29.94in /  1013.8hPa WSW 0.9mph /  1.4km/h 5.0mph /  8km/h 34% 0.00in /  0mm 95.0 W/m2
16:08 73.8 °F /  23.2 °C 45.1 °F /  7.3 °C 29.94in /  1013.8hPa West 2.0mph /  3.2km/h 2.0mph /  3.2km/h 36% 0.00in /  0mm 113.0 W/m2
16:14 73.4 °F /  23 °C 45.5 °F /  7.5 °C 29.94in /  1013.8hPa WSW 4.0mph /  6.4km/h 7.0mph /  11.3km/h 37% 0.00in /  0mm 91.0 W/m2
16:20 72.7 °F /  22.6 °C 45.0 °F /  7.2 °C 29.94in /  1013.8hPa WSW 4.0mph /  6.4km/h 6.0mph /  9.7km/h 37% 0.00in /  0mm 86.0 W/m2
16:26 72.1 °F /  22.3 °C 45.1 °F /  7.3 °C 29.94in /  1013.8hPa West 6.9mph /  11.1km/h 7.0mph /  11.3km/h 38% 0.00in /  0mm 76.0 W/m2
16:32 71.8 °F /  22.1 °C 44.8 °F /  7.1 °C 29.94in /  1013.8hPa West 2.0mph /  3.2km/h 5.0mph /  8km/h 38% 0.00in /  0mm 74.0 W/m2
16:38 71.4 °F /  21.9 °C 45.1 °F /  7.3 °C 29.94in /  1013.8hPa West 6.0mph /  9.7km/h 6.0mph /  9.7km/h 39% 0.00in /  0mm 58.0 W/m2
16:44 71.2 °F /  21.8 °C 45.0 °F /  7.2 °C 29.95in /  1014.1hPa WSW 2.9mph /  4.7km/h 3.0mph /  4.8km/h 39% 0.00in /  0mm 54.0 W/m2
16:51 70.9 °F /  21.6 °C 44.8 °F /  7.1 °C 29.95in /  1014.1hPa WSW 4.9mph /  7.9km/h 7.0mph /  11.3km/h 39% 0.00in /  0mm 53.0 W/m2
16:57 70.5 °F /  21.4 °C 45.0 °F /  7.2 °C 29.95in /  1014.1hPa SW 4.9mph /  7.9km/h 5.0mph /  8km/h 40% 0.00in /  0mm 40.0 W/m2
17:03 70.3 °F /  21.3 °C 45.0 °F /  7.2 °C 29.95in /  1014.1hPa Calm   6.0mph /  9.7km/h 40% 0.00in /  0mm 21.0 W/m2
17:09 70.0 °F /  21.1 °C 44.6 °F /  7 °C 29.96in /  1014.4hPa West 4.9mph /  7.9km/h 5.0mph /  8km/h 40% 0.00in /  0mm 16.0 W/m2
17:15 69.6 °F /  20.9 °C 44.2 °F /  6.8 °C 29.95in /  1014.1hPa WSW 2.0mph /  3.2km/h 7.0mph /  11.3km/h 40% 0.00in /  0mm 9.0 W/m2
17:21 69.4 °F /  20.8 °C 44.8 °F /  7.1 °C 29.96in /  1014.4hPa WSW 0.9mph /  1.4km/h 5.0mph /  8km/h 41% 0.00in /  0mm 0.0 W/m2
17:27 69.1 °F /  20.6 °C 44.4 °F /  6.9 °C 29.96in /  1014.4hPa West 0.9mph /  1.4km/h 3.0mph /  4.8km/h 41% 0.00in /  0mm 0.0 W/m2
17:33 68.7 °F /  20.4 °C 44.8 °F /  7.1 °C 29.96in /  1014.4hPa Calm   2.0mph /  3.2km/h 42% 0.00in /  0mm 0.0 W/m2
17:39 68.5 °F /  20.3 °C 44.6 °F /  7 °C 29.96in /  1014.4hPa West 0.9mph /  1.4km/h 3.0mph /  4.8km/h 42% 0.00in /  0mm 0.0 W/m2
17:45 68.4 °F /  20.2 °C 44.4 °F /  6.9 °C 29.96in /  1014.4hPa SW 0.9mph /  1.4km/h 1.0mph /  1.6km/h 42% 0.00in /  0mm 0.0 W/m2
17:51 68.2 °F /  20.1 °C 44.2 °F /  6.8 °C 29.96in /  1014.4hPa Calm   3.0mph /  4.8km/h 42% 0.00in /  0mm 0.0 W/m2
17:57 68.2 °F /  20.1 °C 44.2 °F /  6.8 °C 29.96in /  1014.4hPa SW 0.9mph /  1.4km/h 5.0mph /  8km/h 42% 0.00in /  0mm 0.0 W/m2
18:03 68.2 °F /  20.1 °C 44.2 °F /  6.8 °C 29.97in /  1014.8hPa Calm   3.0mph /  4.8km/h 42% 0.00in /  0mm 0.0 W/m2
18:09 68.0 °F /  20 °C 44.1 °F /  6.7 °C 29.97in /  1014.8hPa Calm   3.0mph /  4.8km/h 42% 0.00in /  0mm 0.0 W/m2
18:15 68.0 °F /  20 °C 44.1 °F /  6.7 °C 29.97in /  1014.8hPa Calm   2.0mph /  3.2km/h 42% 0.00in /  0mm 0.0 W/m2
18:21 67.8 °F /  19.9 °C 43.9 °F /  6.6 °C 29.98in /  1015.1hPa Calm   4.0mph /  6.4km/h 42% 0.00in /  0mm 0.0 W/m2
18:27 67.8 °F /  19.9 °C 43.9 °F /  6.6 °C 29.98in /  1015.1hPa Calm   1.0mph /  1.6km/h 42% 0.00in /  0mm 0.0 W/m2
18:33 67.8 °F /  19.9 °C 43.9 °F /  6.6 °C 29.98in /  1015.1hPa Calm   2.0mph /  3.2km/h 42% 0.00in /  0mm 0.0 W/m2
18:40 67.8 °F /  19.9 °C 43.9 °F /  6.6 °C 29.98in /  1015.1hPa Calm   2.0mph /  3.2km/h 42% 0.00in /  0mm 0.0 W/m2
18:46 67.6 °F /  19.8 °C 44.4 °F /  6.9 °C 29.98in /  1015.1hPa Calm   1.0mph /  1.6km/h 43% 0.00in /  0mm 0.0 W/m2
18:52 67.6 °F /  19.8 °C 45.0 °F /  7.2 °C 29.99in /  1015.5hPa Calm   1.0mph /  1.6km/h 44% 0.00in /  0mm 0.0 W/m2
18:58 67.5 °F /  19.7 °C 44.8 °F /  7.1 °C 29.99in /  1015.5hPa Calm   1.0mph /  1.6km/h 44% 0.00in /  0mm 0.0 W/m2
19:04 67.5 °F /  19.7 °C 44.8 °F /  7.1 °C 29.99in /  1015.5hPa Calm     44% 0.00in /  0mm 0.0 W/m2
19:10 67.3 °F /  19.6 °C 45.1 °F /  7.3 °C 30.00in /  1015.8hPa Calm   1.0mph /  1.6km/h 45% 0.00in /  0mm 0.0 W/m2
19:16 67.3 °F /  19.6 °C 45.1 °F /  7.3 °C 30.00in /  1015.8hPa Calm   1.0mph /  1.6km/h 45% 0.00in /  0mm 0.0 W/m2
19:22 67.1 °F /  19.5 °C 45.0 °F /  7.2 °C 30.00in /  1015.8hPa Calm   2.0mph /  3.2km/h 45% 0.00in /  0mm 0.0 W/m2
19:29 66.9 °F /  19.4 °C 45.0 °F /  7.2 °C 30.00in /  1015.8hPa Calm   1.0mph /  1.6km/h 45% 0.00in /  0mm 0.0 W/m2
19:35 66.7 °F /  19.3 °C 45.3 °F /  7.4 °C 30.00in /  1015.8hPa Calm     46% 0.00in /  0mm 0.0 W/m2
19:41 66.7 °F /  19.3 °C 45.9 °F /  7.7 °C 29.99in /  1015.5hPa Calm     47% 0.00in /  0mm 0.0 W/m2
19:47 66.6 °F /  19.2 °C 45.7 °F /  7.6 °C 30.00in /  1015.8hPa Calm     47% 0.00in /  0mm 0.0 W/m2
19:53 66.6 °F /  19.2 °C 45.7 °F /  7.6 °C 30.00in /  1015.8hPa Calm     47% 0.00in /  0mm 0.0 W/m2
19:59 66.4 °F /  19.1 °C 45.5 °F /  7.5 °C 30.00in /  1015.8hPa Calm     47% 0.00in /  0mm 0.0 W/m2
20:05 66.4 °F /  19.1 °C 45.5 °F /  7.5 °C 30.00in /  1015.8hPa ESE 0.9mph /  1.4km/h 1.0mph /  1.6km/h 47% 0.00in /  0mm 0.0 W/m2
20:11 66.0 °F /  18.9 °C 45.7 °F /  7.6 °C 30.00in /  1015.8hPa Calm     48% 0.00in /  0mm 0.0 W/m2
20:18 65.8 °F /  18.8 °C 45.7 °F /  7.6 °C 29.99in /  1015.5hPa Calm   1.0mph /  1.6km/h 48% 0.00in /  0mm 0.0 W/m2
20:26 65.7 °F /  18.7 °C 46.0 °F /  7.8 °C 30.00in /  1015.8hPa Calm   1.0mph /  1.6km/h 49% 0.00in /  0mm 0.0 W/m2
20:32 65.5 °F /  18.6 °C 45.9 °F /  7.7 °C 30.00in /  1015.8hPa Calm   1.0mph /  1.6km/h 49% 0.00in /  0mm 0.0 W/m2
20:36 65.3 °F /  18.5 °C 45.7 °F /  7.6 °C 30.00in /  1015.8hPa Calm     49% 0.00in /  0mm 0.0 W/m2
20:42 65.1 °F /  18.4 °C 45.5 °F /  7.5 °C 30.00in /  1015.8hPa Calm     49% 0.00in /  0mm 0.0 W/m2
20:48 65.1 °F /  18.4 °C 46.0 °F /  7.8 °C 30.00in /  1015.8hPa Calm     50% 0.00in /  0mm 0.0 W/m2
20:55 64.9 °F /  18.3 °C 45.9 °F /  7.7 °C 30.00in /  1015.8hPa Calm     50% 0.00in /  0mm 0.0 W/m2
21:01 64.8 °F /  18.2 °C 46.2 °F /  7.9 °C 30.00in /  1015.8hPa Calm     51% 0.00in /  0mm 0.0 W/m2
21:07 64.6 °F /  18.1 °C 46.0 °F /  7.8 °C 30.00in /  1015.8hPa Calm     51% 0.00in /  0mm 0.0 W/m2
21:13 64.6 °F /  18.1 °C 46.0 °F /  7.8 °C 30.00in /  1015.8hPa Calm     51% 0.00in /  0mm 0.0 W/m2
21:19 64.2 °F /  17.9 °C 46.2 °F /  7.9 °C 29.99in /  1015.5hPa Calm     52% 0.00in /  0mm 0.0 W/m2
21:25 64.2 °F /  17.9 °C 46.2 °F /  7.9 °C 29.99in /  1015.5hPa Calm     52% 0.00in /  0mm 0.0 W/m2
21:31 64.0 °F /  17.8 °C 46.0 °F /  7.8 °C 29.99in /  1015.5hPa Calm     52% 0.00in /  0mm 0.0 W/m2
21:37 63.9 °F /  17.7 °C 46.4 °F /  8 °C 29.99in /  1015.5hPa Calm     53% 0.00in /  0mm 0.0 W/m2
21:44 63.9 °F /  17.7 °C 46.4 °F /  8 °C 29.99in /  1015.5hPa Calm     53% 0.00in /  0mm 0.0 W/m2
21:50 63.9 °F /  17.7 °C 46.4 °F /  8 °C 29.98in /  1015.1hPa Calm     53% 0.00in /  0mm 0.0 W/m2
21:56 63.7 °F /  17.6 °C 46.8 °F /  8.2 °C 29.98in /  1015.1hPa Calm     54% 0.00in /  0mm 0.0 W/m2
22:02 63.7 °F /  17.6 °C 46.8 °F /  8.2 °C 29.98in /  1015.1hPa Calm     54% 0.00in /  0mm 0.0 W/m2
22:08 63.5 °F /  17.5 °C 47.1 °F /  8.4 °C 29.98in /  1015.1hPa Calm     55% 0.00in /  0mm 0.0 W/m2
22:14 63.3 °F /  17.4 °C 46.9 °F /  8.3 °C 29.98in /  1015.1hPa Calm     55% 0.00in /  0mm 0.0 W/m2
22:20 63.3 °F /  17.4 °C 46.9 °F /  8.3 °C 29.98in /  1015.1hPa Calm     55% 0.00in /  0mm 0.0 W/m2
22:27 63.1 °F /  17.3 °C 46.8 °F /  8.2 °C 29.98in /  1015.1hPa Calm     55% 0.00in /  0mm 0.0 W/m2
22:33 63.1 °F /  17.3 °C 47.1 °F /  8.4 °C 29.98in /  1015.1hPa Calm     56% 0.00in /  0mm 0.0 W/m2
22:39 63.0 °F /  17.2 °C 46.9 °F /  8.3 °C 29.97in /  1014.8hPa Calm     56% 0.00in /  0mm 0.0 W/m2
22:45 63.0 °F /  17.2 °C 46.9 °F /  8.3 °C 29.97in /  1014.8hPa Calm     56% 0.00in /  0mm 0.0 W/m2
22:51 63.0 °F /  17.2 °C 46.9 °F /  8.3 °C 29.97in /  1014.8hPa Calm     56% 0.00in /  0mm 0.0 W/m2
22:57 62.8 °F /  17.1 °C 46.9 °F /  8.3 °C 29.97in /  1014.8hPa Calm     56% 0.00in /  0mm 0.0 W/m2
23:03 62.8 °F /  17.1 °C 47.3 °F /  8.5 °C 29.97in /  1014.8hPa Calm     57% 0.00in /  0mm 0.0 W/m2
23:10 62.6 °F /  17 °C 47.1 °F /  8.4 °C 29.97in /  1014.8hPa Calm     57% 0.00in /  0mm 0.0 W/m2
23:16 62.4 °F /  16.9 °C 47.5 °F /  8.6 °C 29.96in /  1014.4hPa Calm   3.0mph /  4.8km/h 58% 0.00in /  0mm 0.0 W/m2
23:22 62.4 °F /  16.9 °C 47.5 °F /  8.6 °C 29.96in /  1014.4hPa Calm   2.0mph /  3.2km/h 58% 0.00in /  0mm 0.0 W/m2
23:28 62.4 °F /  16.9 °C 47.5 °F /  8.6 °C 29.96in /  1014.4hPa Calm     58% 0.00in /  0mm 0.0 W/m2
23:34 62.4 °F /  16.9 °C 47.5 °F /  8.6 °C 29.96in /  1014.4hPa Calm   1.0mph /  1.6km/h 58% 0.00in /  0mm 0.0 W/m2
23:40 62.2 °F /  16.8 °C 47.3 °F /  8.5 °C 29.96in /  1014.4hPa Calm   1.0mph /  1.6km/h 58% 0.00in /  0mm 0.0 W/m2
23:46 62.2 °F /  16.8 °C 47.3 °F /  8.5 °C 29.96in /  1014.4hPa Calm   1.0mph /  1.6km/h 58% 0.00in /  0mm 0.0 W/m2
23:52 62.2 °F /  16.8 °C 47.3 °F /  8.5 °C 29.95in /  1014.1hPa Calm     58% 0.00in /  0mm 0.0 W/m2
23:59 62.2 °F /  16.8 °C 47.7 °F /  8.7 °C 29.95in /  1014.1hPa Calm     59% 0.00in /  0mm 0.0 W/m2
Olympia, Windhoek, Namibia
Compliments of Weather Underground - 3 mb